Weather at Wombleton

Public forecast

Using degrees Celsius for public forecast. Weather courtesy of forecast.io.

Closest aviation weather report (METAR) to Wombleton

Closest report is RAF Topcliffe, 14.5 nm (26.9 km) W.

2024/05/25 17:50 (retrieved 35 minutes ago)

EGXZ 251750Z AUTO 11010KT 9999 FEW025/// BKN080/// 14/10 Q1016

Closest aviation forecast (TAF) to Wombleton

Closest forecast is Leeds Bradford Airport, 33.0 nm (61.1 km) SW.

2024/05/25 18:00 (retrieved 25 minutes ago)

TAF EGNM 251706Z 2518/2618 10008KT 9999 FEW015 SCT025 BECMG 2518/2521 3000 RA -RADZ BKN004 TEMPO 2521/2606 1200 RADZ BR BKN001 PROB30 2600/2606 0300 FG BECMG 2606/2609 9999 NSW SCT008 BKN020 TEMPO 2609/2618 4000 +SHRA +TSRA BKN008 BKN025CB